sensor_id;sensor_type;location;lat;lon;timestamp;P1;durP1;ratioP1;P2;durP2;ratioP2
12181;SDS011;6154;51.550;12.138;2024-03-02T00:01:07;22.83;;;10.68;;
12181;SDS011;6154;51.550;12.138;2024-03-02T00:03:36;26.37;;;13.50;;
12181;SDS011;6154;51.550;12.138;2024-03-02T00:06:04;22.67;;;12.15;;
12181;SDS011;6154;51.550;12.138;2024-03-02T00:08:33;26.37;;;11.73;;
12181;SDS011;6154;51.550;12.138;2024-03-02T00:11:01;29.65;;;11.77;;
12181;SDS011;6154;51.550;12.138;2024-03-02T00:13:30;17.70;;;10.93;;
12181;SDS011;6154;51.550;12.138;2024-03-02T00:16:01;20.48;;;10.75;;
12181;SDS011;6154;51.550;12.138;2024-03-02T00:18:32;18.75;;;10.35;;
12181;SDS011;6154;51.550;12.138;2024-03-02T00:21:02;23.25;;;12.00;;
12181;SDS011;6154;51.550;12.138;2024-03-02T00:23:31;21.12;;;11.02;;
12181;SDS011;6154;51.550;12.138;2024-03-02T00:26:02;21.85;;;10.65;;
12181;SDS011;6154;51.550;12.138;2024-03-02T00:28:31;26.17;;;11.32;;
12181;SDS011;6154;51.550;12.138;2024-03-02T00:31:04;20.58;;;10.70;;
12181;SDS011;6154;51.550;12.138;2024-03-02T00:33:34;18.75;;;10.57;;
12181;SDS011;6154;51.550;12.138;2024-03-02T00:36:03;28.08;;;11.23;;
12181;SDS011;6154;51.550;12.138;2024-03-02T00:38:33;22.13;;;11.88;;
12181;SDS011;6154;51.550;12.138;2024-03-02T00:41:04;19.67;;;10.65;;
12181;SDS011;6154;51.550;12.138;2024-03-02T00:43:43;25.10;;;12.13;;
12181;SDS011;6154;51.550;12.138;2024-03-02T00:46:17;26.10;;;11.55;;
12181;SDS011;6154;51.550;12.138;2024-03-02T00:48:54;22.67;;;10.88;;
12181;SDS011;6154;51.550;12.138;2024-03-02T00:51:23;25.02;;;11.38;;
12181;SDS011;6154;51.550;12.138;2024-03-02T00:53:53;19.95;;;9.93;;
12181;SDS011;6154;51.550;12.138;2024-03-02T00:56:24;22.45;;;11.25;;
12181;SDS011;6154;51.550;12.138;2024-03-02T00:58:53;22.77;;;11.10;;
12181;SDS011;6154;51.550;12.138;2024-03-02T01:01:23;19.60;;;11.02;;
12181;SDS011;6154;51.550;12.138;2024-03-02T01:03:51;24.67;;;9.88;;
12181;SDS011;6154;51.550;12.138;2024-03-02T01:06:20;22.75;;;9.88;;
12181;SDS011;6154;51.550;12.138;2024-03-02T01:08:50;18.37;;;10.50;;
12181;SDS011;6154;51.550;12.138;2024-03-02T01:11:21;19.60;;;10.40;;
12181;SDS011;6154;51.550;12.138;2024-03-02T01:13:50;20.30;;;10.82;;
12181;SDS011;6154;51.550;12.138;2024-03-02T01:16:20;26.73;;;11.00;;
12181;SDS011;6154;51.550;12.138;2024-03-02T01:18:50;27.13;;;12.02;;
12181;SDS011;6154;51.550;12.138;2024-03-02T01:21:18;23.73;;;10.90;;
12181;SDS011;6154;51.550;12.138;2024-03-02T01:23:46;24.05;;;12.13;;
12181;SDS011;6154;51.550;12.138;2024-03-02T01:26:15;22.10;;;11.70;;
12181;SDS011;6154;51.550;12.138;2024-03-02T01:28:43;21.15;;;11.68;;
12181;SDS011;6154;51.550;12.138;2024-03-02T01:31:11;21.30;;;11.57;;
12181;SDS011;6154;51.550;12.138;2024-03-02T01:33:39;19.65;;;10.45;;
12181;SDS011;6154;51.550;12.138;2024-03-02T01:36:09;21.17;;;10.82;;
12181;SDS011;6154;51.550;12.138;2024-03-02T01:38:37;22.77;;;11.25;;
12181;SDS011;6154;51.550;12.138;2024-03-02T01:41:05;21.80;;;11.63;;
12181;SDS011;6154;51.550;12.138;2024-03-02T01:43:33;24.50;;;12.30;;
12181;SDS011;6154;51.550;12.138;2024-03-02T01:46:06;23.12;;;10.95;;
12181;SDS011;6154;51.550;12.138;2024-03-02T01:48:34;21.65;;;11.95;;
12181;SDS011;6154;51.550;12.138;2024-03-02T01:51:02;25.88;;;11.35;;
12181;SDS011;6154;51.550;12.138;2024-03-02T01:53:32;17.73;;;10.52;;
12181;SDS011;6154;51.550;12.138;2024-03-02T01:56:00;22.45;;;11.10;;
12181;SDS011;6154;51.550;12.138;2024-03-02T01:58:28;25.88;;;12.65;;
12181;SDS011;6154;51.550;12.138;2024-03-02T02:00:57;23.58;;;12.63;;
12181;SDS011;6154;51.550;12.138;2024-03-02T02:03:25;20.00;;;10.25;;
12181;SDS011;6154;51.550;12.138;2024-03-02T02:05:53;28.38;;;12.85;;
12181;SDS011;6154;51.550;12.138;2024-03-02T02:08:21;24.30;;;12.18;;
12181;SDS011;6154;51.550;12.138;2024-03-02T02:10:50;25.55;;;10.80;;
12181;SDS011;6154;51.550;12.138;2024-03-02T02:13:19;21.12;;;12.70;;
12181;SDS011;6154;51.550;12.138;2024-03-02T02:15:47;24.20;;;10.95;;
12181;SDS011;6154;51.550;12.138;2024-03-02T02:18:15;27.73;;;12.02;;
12181;SDS011;6154;51.550;12.138;2024-03-02T02:20:43;22.13;;;11.27;;
12181;SDS011;6154;51.550;12.138;2024-03-02T02:23:13;21.67;;;10.98;;
12181;SDS011;6154;51.550;12.138;2024-03-02T02:25:41;24.67;;;11.30;;
12181;SDS011;6154;51.550;12.138;2024-03-02T02:28:09;22.13;;;11.07;;
12181;SDS011;6154;51.550;12.138;2024-03-02T02:30:37;24.10;;;11.35;;
12181;SDS011;6154;51.550;12.138;2024-03-02T02:33:05;19.70;;;10.75;;
12181;SDS011;6154;51.550;12.138;2024-03-02T02:35:34;22.55;;;11.70;;
12181;SDS011;6154;51.550;12.138;2024-03-02T02:38:02;25.27;;;11.75;;
12181;SDS011;6154;51.550;12.138;2024-03-02T02:40:32;21.12;;;10.13;;
12181;SDS011;6154;51.550;12.138;2024-03-02T02:43:01;18.85;;;10.23;;
12181;SDS011;6154;51.550;12.138;2024-03-02T02:45:29;17.48;;;9.25;;
12181;SDS011;6154;51.550;12.138;2024-03-02T02:47:57;17.90;;;8.57;;
12181;SDS011;6154;51.550;12.138;2024-03-02T02:50:28;23.45;;;9.88;;
12181;SDS011;6154;51.550;12.138;2024-03-02T02:52:57;24.00;;;9.20;;
12181;SDS011;6154;51.550;12.138;2024-03-02T02:55:25;18.08;;;9.15;;
12181;SDS011;6154;51.550;12.138;2024-03-02T02:57:55;20.12;;;9.85;;
12181;SDS011;6154;51.550;12.138;2024-03-02T03:00:23;17.83;;;10.10;;
12181;SDS011;6154;51.550;12.138;2024-03-02T03:02:51;18.52;;;8.73;;
12181;SDS011;6154;51.550;12.138;2024-03-02T03:05:20;22.05;;;9.85;;
12181;SDS011;6154;51.550;12.138;2024-03-02T03:07:48;22.13;;;9.48;;
12181;SDS011;6154;51.550;12.138;2024-03-02T03:10:17;16.00;;;9.07;;
12181;SDS011;6154;51.550;12.138;2024-03-02T03:12:48;18.58;;;9.02;;
12181;SDS011;6154;51.550;12.138;2024-03-02T03:15:18;19.02;;;8.70;;
12181;SDS011;6154;51.550;12.138;2024-03-02T03:17:46;18.87;;;9.23;;
12181;SDS011;6154;51.550;12.138;2024-03-02T03:20:15;18.02;;;9.57;;
12181;SDS011;6154;51.550;12.138;2024-03-02T03:22:43;15.82;;;8.90;;
12181;SDS011;6154;51.550;12.138;2024-03-02T03:25:11;15.13;;;8.82;;
12181;SDS011;6154;51.550;12.138;2024-03-02T03:27:39;16.67;;;8.88;;
12181;SDS011;6154;51.550;12.138;2024-03-02T03:30:09;18.77;;;8.90;;
12181;SDS011;6154;51.550;12.138;2024-03-02T03:32:39;21.12;;;8.63;;
12181;SDS011;6154;51.550;12.138;2024-03-02T03:35:07;16.80;;;8.80;;
12181;SDS011;6154;51.550;12.138;2024-03-02T03:37:36;20.27;;;9.35;;
12181;SDS011;6154;51.550;12.138;2024-03-02T03:40:05;18.05;;;9.00;;
12181;SDS011;6154;51.550;12.138;2024-03-02T03:42:37;17.10;;;8.77;;
12181;SDS011;6154;51.550;12.138;2024-03-02T03:45:07;20.67;;;9.98;;
12181;SDS011;6154;51.550;12.138;2024-03-02T03:47:35;15.50;;;8.20;;
12181;SDS011;6154;51.550;12.138;2024-03-02T03:50:06;14.80;;;8.85;;
12181;SDS011;6154;51.550;12.138;2024-03-02T03:52:34;17.77;;;8.75;;
12181;SDS011;6154;51.550;12.138;2024-03-02T03:55:03;18.33;;;9.07;;
12181;SDS011;6154;51.550;12.138;2024-03-02T03:57:32;20.55;;;7.95;;
12181;SDS011;6154;51.550;12.138;2024-03-02T04:00:00;22.02;;;10.38;;
12181;SDS011;6154;51.550;12.138;2024-03-02T04:02:37;17.52;;;9.15;;
12181;SDS011;6154;51.550;12.138;2024-03-02T04:05:07;17.80;;;9.02;;
12181;SDS011;6154;51.550;12.138;2024-03-02T04:07:38;22.58;;;10.30;;
12181;SDS011;6154;51.550;12.138;2024-03-02T04:10:08;17.75;;;9.68;;
12181;SDS011;6154;51.550;12.138;2024-03-02T04:12:36;12.60;;;7.40;;
12181;SDS011;6154;51.550;12.138;2024-03-02T04:15:05;15.73;;;7.70;;
12181;SDS011;6154;51.550;12.138;2024-03-02T04:17:33;16.58;;;8.20;;
12181;SDS011;6154;51.550;12.138;2024-03-02T04:20:03;16.00;;;9.00;;
12181;SDS011;6154;51.550;12.138;2024-03-02T04:22:34;18.42;;;8.27;;
12181;SDS011;6154;51.550;12.138;2024-03-02T04:25:03;20.33;;;7.95;;
12181;SDS011;6154;51.550;12.138;2024-03-02T04:27:32;18.15;;;8.48;;
12181;SDS011;6154;51.550;12.138;2024-03-02T04:30:01;17.20;;;9.40;;
12181;SDS011;6154;51.550;12.138;2024-03-02T04:32:30;16.30;;;8.70;;
12181;SDS011;6154;51.550;12.138;2024-03-02T04:34:59;20.30;;;8.98;;
12181;SDS011;6154;51.550;12.138;2024-03-02T04:37:27;20.98;;;8.85;;
12181;SDS011;6154;51.550;12.138;2024-03-02T04:39:56;17.05;;;8.43;;
12181;SDS011;6154;51.550;12.138;2024-03-02T04:42:25;14.82;;;9.10;;
12181;SDS011;6154;51.550;12.138;2024-03-02T04:44:53;19.48;;;8.88;;
12181;SDS011;6154;51.550;12.138;2024-03-02T04:47:21;22.92;;;9.05;;
12181;SDS011;6154;51.550;12.138;2024-03-02T04:49:49;23.02;;;7.82;;
12181;SDS011;6154;51.550;12.138;2024-03-02T04:52:17;18.45;;;8.73;;
12181;SDS011;6154;51.550;12.138;2024-03-02T04:54:45;15.05;;;7.50;;
12181;SDS011;6154;51.550;12.138;2024-03-02T04:57:29;14.20;;;6.65;;
12181;SDS011;6154;51.550;12.138;2024-03-02T04:59:57;16.20;;;8.85;;
12181;SDS011;6154;51.550;12.138;2024-03-02T05:02:26;20.42;;;9.00;;
12181;SDS011;6154;51.550;12.138;2024-03-02T05:04:54;18.25;;;8.35;;
12181;SDS011;6154;51.550;12.138;2024-03-02T05:07:22;17.60;;;8.77;;
12181;SDS011;6154;51.550;12.138;2024-03-02T05:09:50;17.08;;;7.53;;
12181;SDS011;6154;51.550;12.138;2024-03-02T05:12:18;17.12;;;8.07;;
12181;SDS011;6154;51.550;12.138;2024-03-02T05:15:24;17.85;;;8.45;;
12181;SDS011;6154;51.550;12.138;2024-03-02T05:17:53;11.80;;;6.95;;
12181;SDS011;6154;51.550;12.138;2024-03-02T05:20:21;18.48;;;8.95;;
12181;SDS011;6154;51.550;12.138;2024-03-02T05:22:49;16.85;;;7.80;;
12181;SDS011;6154;51.550;12.138;2024-03-02T05:25:17;19.05;;;8.18;;
12181;SDS011;6154;51.550;12.138;2024-03-02T05:27:45;16.02;;;8.32;;
12181;SDS011;6154;51.550;12.138;2024-03-02T05:30:14;17.52;;;8.65;;
12181;SDS011;6154;51.550;12.138;2024-03-02T05:32:46;15.25;;;8.57;;
12181;SDS011;6154;51.550;12.138;2024-03-02T05:35:15;12.60;;;8.25;;
12181;SDS011;6154;51.550;12.138;2024-03-02T05:37:43;14.13;;;7.80;;
12181;SDS011;6154;51.550;12.138;2024-03-02T05:40:11;16.08;;;8.50;;
12181;SDS011;6154;51.550;12.138;2024-03-02T05:42:40;15.50;;;9.43;;
12181;SDS011;6154;51.550;12.138;2024-03-02T05:45:08;19.65;;;8.77;;
12181;SDS011;6154;51.550;12.138;2024-03-02T05:47:37;18.67;;;9.85;;
12181;SDS011;6154;51.550;12.138;2024-03-02T05:50:07;22.87;;;11.32;;
12181;SDS011;6154;51.550;12.138;2024-03-02T05:52:35;19.40;;;11.05;;
12181;SDS011;6154;51.550;12.138;2024-03-02T05:55:03;21.85;;;11.27;;
12181;SDS011;6154;51.550;12.138;2024-03-02T05:57:32;23.77;;;8.88;;
12181;SDS011;6154;51.550;12.138;2024-03-02T06:00:14;21.20;;;10.38;;
12181;SDS011;6154;51.550;12.138;2024-03-02T06:02:44;19.95;;;10.15;;
12181;SDS011;6154;51.550;12.138;2024-03-02T06:05:14;19.60;;;9.75;;
12181;SDS011;6154;51.550;12.138;2024-03-02T06:07:43;19.90;;;10.23;;
12181;SDS011;6154;51.550;12.138;2024-03-02T06:10:11;23.67;;;10.75;;
12181;SDS011;6154;51.550;12.138;2024-03-02T06:12:40;21.27;;;10.25;;
12181;SDS011;6154;51.550;12.138;2024-03-02T06:15:08;22.08;;;11.32;;
12181;SDS011;6154;51.550;12.138;2024-03-02T06:17:39;22.85;;;10.25;;
12181;SDS011;6154;51.550;12.138;2024-03-02T06:20:11;22.33;;;10.95;;
12181;SDS011;6154;51.550;12.138;2024-03-02T06:22:41;20.55;;;11.65;;
12181;SDS011;6154;51.550;12.138;2024-03-02T06:25:15;20.58;;;8.82;;
12181;SDS011;6154;51.550;12.138;2024-03-02T06:27:43;19.15;;;9.38;;
12181;SDS011;6154;51.550;12.138;2024-03-02T06:30:14;15.57;;;8.25;;
12181;SDS011;6154;51.550;12.138;2024-03-02T06:32:45;16.60;;;7.93;;
12181;SDS011;6154;51.550;12.138;2024-03-02T06:35:13;14.77;;;8.30;;
12181;SDS011;6154;51.550;12.138;2024-03-02T06:37:42;13.75;;;8.00;;
12181;SDS011;6154;51.550;12.138;2024-03-02T06:40:11;13.07;;;7.80;;
12181;SDS011;6154;51.550;12.138;2024-03-02T06:42:39;17.70;;;7.22;;
12181;SDS011;6154;51.550;12.138;2024-03-02T06:45:07;14.85;;;8.63;;
12181;SDS011;6154;51.550;12.138;2024-03-02T06:47:36;12.00;;;7.18;;
12181;SDS011;6154;51.550;12.138;2024-03-02T06:50:04;13.95;;;7.35;;
12181;SDS011;6154;51.550;12.138;2024-03-02T06:52:33;13.05;;;7.57;;
12181;SDS011;6154;51.550;12.138;2024-03-02T06:55:03;13.57;;;7.85;;
12181;SDS011;6154;51.550;12.138;2024-03-02T06:57:33;16.10;;;7.53;;
12181;SDS011;6154;51.550;12.138;2024-03-02T07:00:10;16.67;;;7.43;;
12181;SDS011;6154;51.550;12.138;2024-03-02T07:02:46;16.23;;;6.43;;
12181;SDS011;6154;51.550;12.138;2024-03-02T07:05:22;15.88;;;6.82;;
12181;SDS011;6154;51.550;12.138;2024-03-02T07:08:27;14.13;;;7.40;;
12181;SDS011;6154;51.550;12.138;2024-03-02T07:10:58;16.10;;;7.68;;
12181;SDS011;6154;51.550;12.138;2024-03-02T07:13:26;14.18;;;8.02;;
12181;SDS011;6154;51.550;12.138;2024-03-02T07:15:54;15.50;;;8.20;;
12181;SDS011;6154;51.550;12.138;2024-03-02T07:18:49;12.68;;;7.12;;
12181;SDS011;6154;51.550;12.138;2024-03-02T07:21:19;14.77;;;7.82;;
12181;SDS011;6154;51.550;12.138;2024-03-02T07:23:49;14.65;;;7.75;;
12181;SDS011;6154;51.550;12.138;2024-03-02T07:26:19;13.27;;;7.53;;
12181;SDS011;6154;51.550;12.138;2024-03-02T07:28:50;13.93;;;7.85;;
12181;SDS011;6154;51.550;12.138;2024-03-02T07:31:19;17.10;;;8.23;;
12181;SDS011;6154;51.550;12.138;2024-03-02T07:33:47;16.52;;;7.90;;
12181;SDS011;6154;51.550;12.138;2024-03-02T07:36:15;16.60;;;7.75;;
12181;SDS011;6154;51.550;12.138;2024-03-02T07:38:44;14.57;;;7.65;;
12181;SDS011;6154;51.550;12.138;2024-03-02T07:41:12;12.68;;;7.97;;
12181;SDS011;6154;51.550;12.138;2024-03-02T07:43:42;17.12;;;7.37;;
12181;SDS011;6154;51.550;12.138;2024-03-02T07:46:10;14.27;;;7.70;;
12181;SDS011;6154;51.550;12.138;2024-03-02T07:48:38;16.87;;;8.15;;
12181;SDS011;6154;51.550;12.138;2024-03-02T07:51:06;16.50;;;8.52;;
12181;SDS011;6154;51.550;12.138;2024-03-02T07:53:35;13.65;;;7.15;;
12181;SDS011;6154;51.550;12.138;2024-03-02T07:56:04;17.15;;;7.62;;
12181;SDS011;6154;51.550;12.138;2024-03-02T07:58:33;15.15;;;7.47;;
12181;SDS011;6154;51.550;12.138;2024-03-02T08:01:28;14.43;;;7.93;;
12181;SDS011;6154;51.550;12.138;2024-03-02T08:03:58;17.35;;;9.02;;
12181;SDS011;6154;51.550;12.138;2024-03-02T08:06:26;12.45;;;7.37;;
12181;SDS011;6154;51.550;12.138;2024-03-02T08:08:55;13.10;;;7.45;;
12181;SDS011;6154;51.550;12.138;2024-03-02T08:11:24;16.40;;;7.82;;
12181;SDS011;6154;51.550;12.138;2024-03-02T08:13:53;20.30;;;8.52;;
12181;SDS011;6154;51.550;12.138;2024-03-02T08:16:22;14.93;;;8.70;;
12181;SDS011;6154;51.550;12.138;2024-03-02T08:18:53;18.27;;;8.98;;
12181;SDS011;6154;51.550;12.138;2024-03-02T08:21:23;15.48;;;8.80;;
12181;SDS011;6154;51.550;12.138;2024-03-02T08:23:52;18.12;;;9.77;;
12181;SDS011;6154;51.550;12.138;2024-03-02T08:26:22;19.45;;;9.93;;
12181;SDS011;6154;51.550;12.138;2024-03-02T08:28:50;19.62;;;9.13;;
12181;SDS011;6154;51.550;12.138;2024-03-02T08:31:19;20.17;;;9.95;;
12181;SDS011;6154;51.550;12.138;2024-03-02T08:33:47;22.48;;;10.30;;
12181;SDS011;6154;51.550;12.138;2024-03-02T08:36:19;15.77;;;9.23;;
12181;SDS011;6154;51.550;12.138;2024-03-02T08:38:57;18.05;;;10.57;;
12181;SDS011;6154;51.550;12.138;2024-03-02T08:41:25;21.40;;;9.68;;
12181;SDS011;6154;51.550;12.138;2024-03-02T08:43:53;17.55;;;9.80;;
12181;SDS011;6154;51.550;12.138;2024-03-02T08:46:21;19.05;;;10.63;;
12181;SDS011;6154;51.550;12.138;2024-03-02T08:48:51;18.60;;;10.18;;
12181;SDS011;6154;51.550;12.138;2024-03-02T08:51:28;20.60;;;10.73;;
12181;SDS011;6154;51.550;12.138;2024-03-02T08:53:58;19.00;;;9.23;;
12181;SDS011;6154;51.550;12.138;2024-03-02T08:56:33;19.45;;;9.35;;
12181;SDS011;6154;51.550;12.138;2024-03-02T08:59:01;18.48;;;9.98;;
12181;SDS011;6154;51.550;12.138;2024-03-02T09:01:30;18.92;;;9.52;;
12181;SDS011;6154;51.550;12.138;2024-03-02T09:04:05;17.23;;;8.88;;
12181;SDS011;6154;51.550;12.138;2024-03-02T09:06:39;19.52;;;10.07;;
12181;SDS011;6154;51.550;12.138;2024-03-02T09:09:07;18.05;;;9.32;;
12181;SDS011;6154;51.550;12.138;2024-03-02T09:11:36;20.33;;;9.73;;
12181;SDS011;6154;51.550;12.138;2024-03-02T09:14:05;18.80;;;9.65;;
12181;SDS011;6154;51.550;12.138;2024-03-02T09:16:33;16.75;;;8.65;;
12181;SDS011;6154;51.550;12.138;2024-03-02T09:19:02;17.15;;;9.05;;
12181;SDS011;6154;51.550;12.138;2024-03-02T09:21:31;18.33;;;9.40;;
12181;SDS011;6154;51.550;12.138;2024-03-02T09:24:01;19.40;;;10.02;;
12181;SDS011;6154;51.550;12.138;2024-03-02T09:26:31;16.02;;;9.00;;
12181;SDS011;6154;51.550;12.138;2024-03-02T09:29:02;17.73;;;9.02;;
12181;SDS011;6154;51.550;12.138;2024-03-02T09:31:30;19.90;;;9.00;;
12181;SDS011;6154;51.550;12.138;2024-03-02T09:33:59;18.80;;;9.38;;
12181;SDS011;6154;51.550;12.138;2024-03-02T09:36:27;19.02;;;9.68;;
12181;SDS011;6154;51.550;12.138;2024-03-02T09:38:55;16.95;;;9.52;;
12181;SDS011;6154;51.550;12.138;2024-03-02T09:41:25;17.62;;;8.98;;
12181;SDS011;6154;51.550;12.138;2024-03-02T09:43:54;15.48;;;8.88;;
12181;SDS011;6154;51.550;12.138;2024-03-02T09:46:23;14.93;;;7.90;;
12181;SDS011;6154;51.550;12.138;2024-03-02T09:48:51;17.60;;;9.15;;
12181;SDS011;6154;51.550;12.138;2024-03-02T09:51:19;18.60;;;8.88;;
12181;SDS011;6154;51.550;12.138;2024-03-02T09:53:47;19.00;;;8.73;;
12181;SDS011;6154;51.550;12.138;2024-03-02T09:56:17;16.80;;;8.60;;
12181;SDS011;6154;51.550;12.138;2024-03-02T09:59:00;16.20;;;8.35;;
12181;SDS011;6154;51.550;12.138;2024-03-02T10:01:31;17.08;;;9.15;;
12181;SDS011;6154;51.550;12.138;2024-03-02T10:04:04;19.77;;;9.20;;
12181;SDS011;6154;51.550;12.138;2024-03-02T10:06:33;20.52;;;8.45;;
12181;SDS011;6154;51.550;12.138;2024-03-02T10:09:01;18.92;;;8.18;;
12181;SDS011;6154;51.550;12.138;2024-03-02T10:11:30;17.58;;;9.05;;
12181;SDS011;6154;51.550;12.138;2024-03-02T10:14:07;15.95;;;8.68;;
12181;SDS011;6154;51.550;12.138;2024-03-02T10:16:37;14.85;;;7.70;;
12181;SDS011;6154;51.550;12.138;2024-03-02T10:19:16;15.70;;;7.53;;
12181;SDS011;6154;51.550;12.138;2024-03-02T10:21:46;16.45;;;7.72;;
12181;SDS011;6154;51.550;12.138;2024-03-02T10:24:14;10.77;;;6.97;;
12181;SDS011;6154;51.550;12.138;2024-03-02T10:26:42;16.60;;;8.10;;
12181;SDS011;6154;51.550;12.138;2024-03-02T10:29:12;15.43;;;7.82;;
12181;SDS011;6154;51.550;12.138;2024-03-02T10:31:41;12.37;;;7.53;;
12181;SDS011;6154;51.550;12.138;2024-03-02T10:34:13;12.00;;;7.00;;
12181;SDS011;6154;51.550;12.138;2024-03-02T10:36:43;13.55;;;7.40;;
12181;SDS011;6154;51.550;12.138;2024-03-02T10:39:16;16.37;;;6.53;;
12181;SDS011;6154;51.550;12.138;2024-03-02T10:41:45;12.35;;;6.40;;
12181;SDS011;6154;51.550;12.138;2024-03-02T10:44:18;12.55;;;6.87;;
12181;SDS011;6154;51.550;12.138;2024-03-02T10:46:48;11.77;;;6.43;;
12181;SDS011;6154;51.550;12.138;2024-03-02T10:49:21;14.82;;;7.68;;
12181;SDS011;6154;51.550;12.138;2024-03-02T10:51:51;13.88;;;7.00;;
12181;SDS011;6154;51.550;12.138;2024-03-02T10:54:19;11.65;;;6.55;;
12181;SDS011;6154;51.550;12.138;2024-03-02T10:56:53;13.82;;;6.45;;
12181;SDS011;6154;51.550;12.138;2024-03-02T10:59:26;13.77;;;6.45;;
12181;SDS011;6154;51.550;12.138;2024-03-02T11:01:57;11.52;;;6.25;;
12181;SDS011;6154;51.550;12.138;2024-03-02T11:04:31;10.45;;;6.30;;
12181;SDS011;6154;51.550;12.138;2024-03-02T11:07:02;11.12;;;6.18;;
12181;SDS011;6154;51.550;12.138;2024-03-02T11:09:33;10.80;;;5.97;;
12181;SDS011;6154;51.550;12.138;2024-03-02T11:12:03;10.23;;;5.97;;
12181;SDS011;6154;51.550;12.138;2024-03-02T11:14:40;11.40;;;5.78;;
12181;SDS011;6154;51.550;12.138;2024-03-02T11:17:10;10.48;;;5.78;;
12181;SDS011;6154;51.550;12.138;2024-03-02T11:19:39;9.38;;;5.10;;
12181;SDS011;6154;51.550;12.138;2024-03-02T11:22:09;10.50;;;5.18;;
12181;SDS011;6154;51.550;12.138;2024-03-02T11:24:38;7.87;;;5.37;;
12181;SDS011;6154;51.550;12.138;2024-03-02T11:27:06;11.30;;;5.80;;
12181;SDS011;6154;51.550;12.138;2024-03-02T11:29:46;10.70;;;5.70;;
12181;SDS011;6154;51.550;12.138;2024-03-02T11:32:16;10.55;;;5.50;;
12181;SDS011;6154;51.550;12.138;2024-03-02T11:34:45;8.90;;;5.62;;
12181;SDS011;6154;51.550;12.138;2024-03-02T11:37:16;12.13;;;6.75;;
12181;SDS011;6154;51.550;12.138;2024-03-02T11:39:46;9.93;;;6.15;;
12181;SDS011;6154;51.550;12.138;2024-03-02T11:42:16;9.70;;;5.70;;
12181;SDS011;6154;51.550;12.138;2024-03-02T11:44:46;10.70;;;6.47;;
12181;SDS011;6154;51.550;12.138;2024-03-02T11:47:16;10.95;;;5.68;;
12181;SDS011;6154;51.550;12.138;2024-03-02T11:49:45;11.98;;;5.85;;
12181;SDS011;6154;51.550;12.138;2024-03-02T11:52:14;9.85;;;6.12;;
12181;SDS011;6154;51.550;12.138;2024-03-02T11:54:45;8.73;;;5.75;;
12181;SDS011;6154;51.550;12.138;2024-03-02T11:57:16;10.57;;;5.97;;
12181;SDS011;6154;51.550;12.138;2024-03-02T11:59:47;8.00;;;5.07;;
12181;SDS011;6154;51.550;12.138;2024-03-02T12:02:17;10.57;;;5.45;;
12181;SDS011;6154;51.550;12.138;2024-03-02T12:04:47;9.45;;;5.87;;
12181;SDS011;6154;51.550;12.138;2024-03-02T12:07:19;9.45;;;5.28;;
12181;SDS011;6154;51.550;12.138;2024-03-02T12:09:49;9.88;;;5.47;;
12181;SDS011;6154;51.550;12.138;2024-03-02T12:12:26;9.18;;;5.18;;
12181;SDS011;6154;51.550;12.138;2024-03-02T12:14:56;9.27;;;5.72;;
12181;SDS011;6154;51.550;12.138;2024-03-02T12:17:26;7.47;;;4.50;;
12181;SDS011;6154;51.550;12.138;2024-03-02T12:19:55;9.32;;;5.28;;
12181;SDS011;6154;51.550;12.138;2024-03-02T12:22:23;9.88;;;5.68;;
12181;SDS011;6154;51.550;12.138;2024-03-02T12:24:51;7.70;;;5.07;;
12181;SDS011;6154;51.550;12.138;2024-03-02T12:27:20;7.95;;;5.15;;
12181;SDS011;6154;51.550;12.138;2024-03-02T12:29:48;8.77;;;4.75;;
12181;SDS011;6154;51.550;12.138;2024-03-02T12:32:18;7.87;;;4.53;;
12181;SDS011;6154;51.550;12.138;2024-03-02T12:34:46;9.65;;;4.90;;
12181;SDS011;6154;51.550;12.138;2024-03-02T12:37:14;7.80;;;4.32;;
12181;SDS011;6154;51.550;12.138;2024-03-02T12:39:44;9.75;;;5.07;;
12181;SDS011;6154;51.550;12.138;2024-03-02T12:42:13;10.23;;;4.75;;
12181;SDS011;6154;51.550;12.138;2024-03-02T12:44:41;8.02;;;4.50;;
12181;SDS011;6154;51.550;12.138;2024-03-02T12:47:09;10.50;;;4.80;;
12181;SDS011;6154;51.550;12.138;2024-03-02T12:49:41;10.13;;;4.57;;
12181;SDS011;6154;51.550;12.138;2024-03-02T12:52:11;6.32;;;3.83;;
12181;SDS011;6154;51.550;12.138;2024-03-02T12:54:40;6.20;;;4.40;;
12181;SDS011;6154;51.550;12.138;2024-03-02T12:57:08;7.37;;;3.95;;
12181;SDS011;6154;51.550;12.138;2024-03-02T12:59:36;6.90;;;4.50;;
12181;SDS011;6154;51.550;12.138;2024-03-02T13:02:06;6.62;;;4.30;;
12181;SDS011;6154;51.550;12.138;2024-03-02T13:04:37;4.97;;;3.30;;
12181;SDS011;6154;51.550;12.138;2024-03-02T13:07:06;6.10;;;3.40;;
12181;SDS011;6154;51.550;12.138;2024-03-02T13:09:35;5.62;;;3.80;;
12181;SDS011;6154;51.550;12.138;2024-03-02T13:12:03;7.18;;;4.12;;
12181;SDS011;6154;51.550;12.138;2024-03-02T13:14:32;6.85;;;3.83;;
12181;SDS011;6154;51.550;12.138;2024-03-02T13:17:02;5.65;;;3.78;;
12181;SDS011;6154;51.550;12.138;2024-03-02T13:19:31;7.68;;;4.43;;
12181;SDS011;6154;51.550;12.138;2024-03-02T13:22:00;8.40;;;4.18;;
12181;SDS011;6154;51.550;12.138;2024-03-02T13:24:30;7.35;;;3.97;;
12181;SDS011;6154;51.550;12.138;2024-03-02T13:26:59;6.97;;;4.07;;
12181;SDS011;6154;51.550;12.138;2024-03-02T13:29:30;7.28;;;4.50;;
12181;SDS011;6154;51.550;12.138;2024-03-02T13:31:58;7.43;;;4.47;;
12181;SDS011;6154;51.550;12.138;2024-03-02T13:34:35;7.43;;;4.05;;
12181;SDS011;6154;51.550;12.138;2024-03-02T13:37:03;7.50;;;4.55;;
12181;SDS011;6154;51.550;12.138;2024-03-02T13:39:34;5.85;;;3.80;;
12181;SDS011;6154;51.550;12.138;2024-03-02T13:42:06;6.57;;;3.95;;
12181;SDS011;6154;51.550;12.138;2024-03-02T13:44:35;5.82;;;3.65;;
12181;SDS011;6154;51.550;12.138;2024-03-02T13:47:07;6.05;;;3.60;;
12181;SDS011;6154;51.550;12.138;2024-03-02T13:49:37;6.93;;;4.25;;
12181;SDS011;6154;51.550;12.138;2024-03-02T13:52:10;7.10;;;4.47;;
12181;SDS011;6154;51.550;12.138;2024-03-02T13:54:42;7.30;;;4.53;;
12181;SDS011;6154;51.550;12.138;2024-03-02T13:57:11;7.93;;;4.80;;
12181;SDS011;6154;51.550;12.138;2024-03-02T13:59:40;7.40;;;4.50;;
12181;SDS011;6154;51.550;12.138;2024-03-02T14:02:09;8.15;;;4.65;;
12181;SDS011;6154;51.550;12.138;2024-03-02T14:04:39;7.80;;;4.55;;
12181;SDS011;6154;51.550;12.138;2024-03-02T14:07:08;6.95;;;4.10;;
12181;SDS011;6154;51.550;12.138;2024-03-02T14:09:37;7.70;;;4.60;;
12181;SDS011;6154;51.550;12.138;2024-03-02T14:12:07;6.43;;;3.65;;
12181;SDS011;6154;51.550;12.138;2024-03-02T14:14:38;8.27;;;4.50;;
12181;SDS011;6154;51.550;12.138;2024-03-02T14:17:06;6.80;;;4.10;;
12181;SDS011;6154;51.550;12.138;2024-03-02T14:19:38;7.75;;;4.25;;
12181;SDS011;6154;51.550;12.138;2024-03-02T14:22:06;4.93;;;3.05;;
12181;SDS011;6154;51.550;12.138;2024-03-02T14:24:35;4.57;;;3.40;;
12181;SDS011;6154;51.550;12.138;2024-03-02T14:27:03;6.30;;;3.67;;
12181;SDS011;6154;51.550;12.138;2024-03-02T14:29:51;6.37;;;3.20;;
12181;SDS011;6154;51.550;12.138;2024-03-02T14:32:19;7.62;;;3.90;;
12181;SDS011;6154;51.550;12.138;2024-03-02T14:34:47;8.38;;;3.40;;
12181;SDS011;6154;51.550;12.138;2024-03-02T14:37:16;6.15;;;3.58;;
12181;SDS011;6154;51.550;12.138;2024-03-02T14:39:44;4.12;;;2.50;;
12181;SDS011;6154;51.550;12.138;2024-03-02T14:42:12;5.65;;;2.78;;
12181;SDS011;6154;51.550;12.138;2024-03-02T14:44:43;5.60;;;3.25;;
12181;SDS011;6154;51.550;12.138;2024-03-02T14:47:12;5.55;;;3.00;;
12181;SDS011;6154;51.550;12.138;2024-03-02T14:49:41;3.83;;;2.83;;